Terminal Aerodrome Forecast
Issued by NWS Omaha/Valley, NE

Home | Current Version | Previous Version | Graphics & Text | Print | Product List | Glossary On
Versions: 1 2 3 4 5 6 7 8 9 10 11 12 13 14 15 16 17 18 19 20 21 22 23 24 25 26 27 28 29 30 31
000
FTUS43 KOAX 242210 AAB
TAFOFK
TAF AMD
KOFK 242210Z 2422/2518 01015G23KT P6SM OVC012
      TEMPO 2422/2502 4SM -RA BR OVC007
     FM250600 36014G20KT 5SM BR OVC005
     FM251400 01013KT P6SM OVC008=

USA.gov is the U.S. government's official web portal to all federal, state and local government web resources and services.